M V Stampede — V70B4 — position and weather

sailwx.info

Track history (hours):
 
Tides and Currents Weather Stations Pressure Air Temp Water Temp Dewpoint Dewpoint Depression Visibility Wind Speed Wind Dir Waves Ship Positions

M V Stampede

Last reported at 2016-May-31 21:11 UTC. Time now 2016-Jun-01 01:38 UTC.
Position N 50°27' W 125°17'.

Length 35 m; draft 3.2 m.

Type: Pleasure craft. MMSI: 538070463.

Date/timePositionNaut miles runAvg speedWind from/ knotsBaromVisibWave heightAir tempDewpointWater temp
2016-May-31 21:11N 50°27' W 125°17'5 8.5
2016-May-31 20:32N 50°24' W 125°09'3 3.1
2016-May-31 19:34N 50°22' W 125°05'1 1.4
2016-May-31 18:33N 50°21' W 125°06'6 6.5
2016-May-31 17:33N 50°16' W 125°00'7 7.2
2016-May-31 16:34N 50°12' W 124°51'0 0.3
2016-May-31 15:33N 50°12' W 124°51'0 0.0
2016-May-31 14:33N 50°12' W 124°51'0 0.0
2016-May-31 13:33N 50°12' W 124°51'0 0.0
2016-May-31 12:34N 50°12' W 124°51'0 0.0
2016-May-31 11:33N 50°12' W 124°51'0 0.0
2016-May-31 10:33N 50°12' W 124°51'0 0.0
2016-May-31 09:34N 50°12' W 124°51'0 0.0
2016-May-31 08:33N 50°12' W 124°51'0 0.0
2016-May-31 07:33N 50°12' W 124°51'0 0.0
2016-May-31 06:33N 50°12' W 124°51'0 0.0
2016-May-31 04:33N 50°12' W 124°51'0 0.0
2016-May-31 03:34N 50°12' W 124°51'0 0.0
2016-May-31 02:33N 50°12' W 124°51'0 0.0
2016-May-31 01:33N 50°12' W 124°51'0 0.0
2016-May-31 00:33N 50°12' W 124°51'0 0.0
2016-May-30 23:33N 50°12' W 124°51'0 0.0
2016-May-30 22:33N 50°12' W 124°51'0 0.2
2016-May-30 21:34N 50°12' W 124°51'0 0.2
2016-May-30 20:33N 50°12' W 124°51'0 0.0
2016-May-30 19:33N 50°12' W 124°51'0 0.0
2016-May-30 18:33N 50°12' W 124°51'0 0.0
2016-May-30 17:33N 50°12' W 124°51'0 0.0
2016-May-30 16:34N 50°12' W 124°51'0 0.0
2016-May-30 15:33N 50°12' W 124°51'0 0.0
2016-May-30 14:33N 50°12' W 124°51'0 0.0
2016-May-30 13:33N 50°12' W 124°51'0 0.0
2016-May-30 12:33N 50°12' W 124°51'0 0.0
2016-May-30 11:33N 50°12' W 124°51'0 0.0
2016-May-30 10:34N 50°12' W 124°51'0 0.0
2016-May-30 09:33N 50°12' W 124°51'0 0.0
2016-May-30 08:33N 50°12' W 124°51'0 0.0
2016-May-30 07:33N 50°12' W 124°51'0 0.0
2016-May-30 06:33N 50°12' W 124°51'0 0.0
2016-May-30 05:33N 50°12' W 124°51'0 0.0
2016-May-30 04:33N 50°12' W 124°51'0 0.0
2016-May-30 03:34N 50°12' W 124°51'0 0.0
2016-May-30 02:34N 50°12' W 124°51'0 0.0
2016-May-30 01:34N 50°12' W 124°51'0 0.0
2016-May-30 00:34N 50°12' W 124°51'0 0.0
2016-May-29 23:33N 50°12' W 124°51'0 0.0
2016-May-29 22:33N 50°12' W 124°51'0 0.0
2016-May-29 21:33N 50°12' W 124°51'3 3.2
2016-May-29 20:33N 50°09' W 124°53'7 7.2
2016-May-29 19:33N 50°02' W 124°51'10 9.8
2016-May-29 18:32N 49°55' W 124°40'9 9.6
2016-May-29 17:33N 49°47' W 124°31'10 9.6
2016-May-29 16:33N 49°44' W 124°17'3 2.9
2016-May-29 15:32N 49°44' W 124°12'0 0.0
2016-May-29 14:32N 49°44' W 124°12'0 0.0
2016-May-29 13:32N 49°44' W 124°12'0 0.0
2016-May-29 12:33N 49°44' W 124°12'0 0.0
2016-May-29 11:33N 49°44' W 124°12'0 0.0
2016-May-29 10:30N 49°44' W 124°12'0 0.0
2016-May-29 09:33N 49°44' W 124°12'0 0.0
2016-May-29 08:33N 49°44' W 124°12'0 0.0
2016-May-29 07:34N 49°44' W 124°12'0 0.0
2016-May-29 06:32N 49°44' W 124°12'0 0.0
2016-May-29 05:32N 49°44' W 124°12'0 0.0
2016-May-29 04:25N 49°44' W 124°12'0 0.0
2016-May-29 03:33N 49°44' W 124°12'0 0.0
2016-May-29 02:33N 49°44' W 124°12'1 0.7
2016-May-29 01:33N 49°43' W 124°13'9 8.5
2016-May-29 00:33N 49°35' W 124°08'1010.2
2016-May-28 23:32N 49°27' W 123°58'1110.2
2016-May-28 22:30N 49°25' W 123°42'9 9.0
2016-May-28 21:33N 49°21' W 123°31'1010.4
2016-May-28 20:33N 49°19' W 123°15'5 5.4
2016-May-28 19:33N 49°18' W 123°08'0 0.0
2016-May-28 18:33N 49°18' W 123°08'0 0.0
2016-May-28 17:33N 49°18' W 123°08'0 0.0
2016-May-28 16:33N 49°18' W 123°08'0 0.0
2016-May-28 15:33N 49°18' W 123°08'0 0.0
2016-May-28 14:33N 49°18' W 123°08'0 0.0
2016-May-28 13:34N 49°18' W 123°08'0 0.0
2016-May-28 12:33N 49°18' W 123°08'0 0.0
2016-May-28 11:33N 49°18' W 123°08'0 0.0
2016-May-28 10:33N 49°18' W 123°08'0 0.0
2016-May-28 09:33N 49°18' W 123°08'0 0.0
2016-May-28 08:33N 49°18' W 123°08'0 0.0
2016-May-28 07:33N 49°18' W 123°08'0 0.0
2016-May-28 06:33N 49°18' W 123°08'0 0.0
2016-May-28 05:33N 49°18' W 123°08'0 0.0
2016-May-28 04:33N 49°18' W 123°08'0 0.0
2016-May-28 03:33N 49°18' W 123°08'0 0.0
2016-May-28 02:33N 49°18' W 123°08'1 0.8
2016-May-28 01:34N 49°18' W 123°06'9 8.8
2016-May-28 00:33N 49°14' W 123°19'1111.0
2016-May-27 23:33N 49°03' W 123°20'1010.4
2016-May-27 22:33N 48°53' W 123°16'6 6.2
2016-May-27 21:33N 48°49' W 123°09'4 3.7
2016-May-27 20:31N 48°49' W 123°03'6 6.1
2016-May-27 19:32N 48°44' W 123°08'5 4.6
2016-May-27 18:27N 48°45' W 123°15'0 0.0
2016-May-27 17:14N 48°45' W 123°15'0 0.0
2016-May-27 16:16N 48°45' W 123°15'0 0.0
2016-May-27 15:33N 48°45' W 123°15'0 0.0
2016-May-27 14:24N 48°45' W 123°15'0 0.0
2016-May-27 13:30N 48°45' W 123°15'0 0.0
2016-May-27 12:19N 48°45' W 123°15'0 0.0
2016-May-27 11:16N 48°45' W 123°15'0 0.0
2016-May-27 10:31N 48°45' W 123°15'0 0.0
2016-May-27 09:33N 48°45' W 123°15'0 0.0
2016-May-27 06:28N 48°45' W 123°15'0 0.0
2016-May-27 04:11N 48°45' W 123°15'0 0.0
2016-May-27 01:32N 48°45' W 123°15'2 2.0
2016-May-27 00:19N 48°43' W 123°14'7 8.9
2016-May-26 23:33N 48°36' W 123°13'8 8.1
2016-May-26 22:33N 48°29' W 123°08'9 8.6
2016-May-26 21:33N 48°23' W 123°18'4 3.4
2016-May-26 20:31N 48°26' W 123°22'0 0.0
2016-May-26 19:31N 48°26' W 123°22'0 0.0
2016-May-26 18:31N 48°26' W 123°22'0 0.0
2016-May-26 17:32N 48°26' W 123°22'0 0.0
2016-May-26 16:25N 48°26' W 123°22'0 0.0
2016-May-26 15:31N 48°26' W 123°22'0 0.0
2016-May-26 14:33N 48°26' W 123°22'0 0.0
2016-May-26 13:34N 48°26' W 123°22'0 0.0
2016-May-26 12:22N 48°26' W 123°22'0 0.0
2016-May-26 11:19N 48°26' W 123°22'0 0.0
2016-May-26 10:31N 48°26' W 123°22'0 0.0
2016-May-26 09:31N 48°26' W 123°22'0 0.0
2016-May-26 08:31N 48°26' W 123°22'0 0.0
2016-May-26 07:28N 48°26' W 123°22'0 0.0
2016-May-26 06:33N 48°26' W 123°22'0 0.0
2016-May-26 05:33N 48°26' W 123°22'0 0.0
2016-May-26 04:33N 48°26' W 123°22'0 0.0
2016-May-26 03:30N 48°26' W 123°22'0 0.0
2016-May-26 02:33N 48°26' W 123°22'0 0.0
2016-May-26 01:33N 48°26' W 123°22'0 0.0
2016-May-26 00:33N 48°26' W 123°22'0 0.0
2016-May-25 23:33N 48°26' W 123°22'0 0.0
2016-May-25 22:33N 48°26' W 123°22'0 0.3
2016-May-25 21:34N 48°25' W 123°23'0 0.0
2016-May-25 20:34N 48°25' W 123°23'7 6.9
2016-May-25 19:33N 48°19' W 123°18'1010.5
2016-May-25 18:34N 48°14' W 123°04'14 0.8
2016-May-25 01:29N 48°06' W 122°47'4 3.7
2016-May-25 00:23N 48°07' W 122°41'5 6.5
2016-May-24 23:32N 48°02' W 122°37'7 7.3
2016-May-24 22:33N 47°56' W 122°30'9 9.3
2016-May-24 21:33N 47°48' W 122°26'9 9.4
2016-May-24 20:33N 47°38' W 122°26'1 1.5
2016-May-24 19:33N 47°38' W 122°24'0 0.0
2016-May-24 18:33N 47°38' W 122°24'0 0.0
2016-May-24 17:33N 47°38' W 122°24'0 0.0
2016-May-24 16:33N 47°38' W 122°24'0 0.0
2016-May-24 15:32N 47°38' W 122°24'0 0.0
2016-May-24 14:32N 47°38' W 122°24'0 0.0
2016-May-24 13:28N 47°38' W 122°24'0 0.0
2016-May-24 12:31N 47°38' W 122°24'0 0.0
2016-May-24 11:31N 47°38' W 122°24'0 0.0
2016-May-24 10:32N 47°38' W 122°24'0 0.0
2016-May-24 09:30N 47°38' W 122°24'0 0.0
2016-May-24 08:33N 47°38' W 122°24'0 0.0
2016-May-24 07:33N 47°38' W 122°24'0 0.0
2016-May-24 06:31N 47°38' W 122°24'0 0.0
2016-May-24 05:34N 47°38' W 122°24'0 0.0
2016-May-24 04:30N 47°38' W 122°24'0 0.2
2016-May-24 03:32N 47°38' W 122°23'0 0.0
2016-May-24 02:32N 47°38' W 122°23'0 0.0
2016-May-24 01:31N 47°38' W 122°23'0 0.0
2016-May-24 00:32N 47°38' W 122°23'0 0.0
2016-May-23 23:33N 47°38' W 122°23'0 0.0
2016-May-23 22:33N 47°38' W 122°23'0 0.0
2016-May-23 21:33N 47°38' W 122°23'0 0.0
2016-May-23 20:32N 47°38' W 122°23'0 0.0
2016-May-23 19:33N 47°38' W 122°23'0 0.0
2016-May-23 18:31N 47°38' W 122°23'0 0.0
2016-May-23 17:33N 47°38' W 122°23'0 0.0
2016-May-23 16:32N 47°38' W 122°23'0 0.0
2016-May-23 15:31N 47°38' W 122°23'0 0.0
2016-May-23 14:31N 47°38' W 122°23'0 0.0
2016-May-23 13:31N 47°38' W 122°23'0 0.0
2016-May-23 12:32N 47°38' W 122°23'0 0.0
2016-May-23 11:32N 47°38' W 122°23'0 0.0
2016-May-23 10:32N 47°38' W 122°23'0 0.0
2016-May-23 09:32N 47°38' W 122°23'0 0.0
2016-May-23 08:32N 47°38' W 122°23'0 0.0
2016-May-23 07:32N 47°38' W 122°23'0 0.0
2016-May-23 06:32N 47°38' W 122°23'0 0.0
2016-May-23 05:33N 47°38' W 122°23'0 0.0
2016-May-23 04:33N 47°38' W 122°23'0 0.0
2016-May-23 03:33N 47°38' W 122°23'0 0.0
2016-May-23 02:33N 47°38' W 122°23'0 0.0
2016-May-23 01:33N 47°38' W 122°23'0 0.0
2016-May-23 00:31N 47°38' W 122°23'0 0.0
2016-May-22 23:33N 47°38' W 122°23'0 0.0
2016-May-22 22:33N 47°38' W 122°23'0 0.0
2016-May-22 21:33N 47°38' W 122°23'0 0.0
2016-May-22 20:33N 47°38' W 122°23'0 0.0
2016-May-22 19:33N 47°38' W 122°23'0 0.0
2016-May-22 18:33N 47°38' W 122°23'0 0.0
2016-May-22 17:33N 47°38' W 122°23'0 0.0
2016-May-22 16:33N 47°38' W 122°23'0 0.0
2016-May-22 15:33N 47°38' W 122°23'0 0.0
2016-May-22 14:33N 47°38' W 122°23'0 0.0
2016-May-22 13:33N 47°38' W 122°23'0 0.0
2016-May-22 12:33N 47°38' W 122°23'0 0.0
2016-May-22 11:33N 47°38' W 122°23'0 0.0
2016-May-22 10:33N 47°38' W 122°23'0 0.0
2016-May-22 09:33N 47°38' W 122°23'0 0.0
2016-May-22 08:30N 47°38' W 122°23'0 0.0
2016-May-22 07:33N 47°38' W 122°23'0 0.0
2016-May-22 06:33N 47°38' W 122°23'0 0.0
2016-May-22 05:33N 47°38' W 122°23'0 0.0
2016-May-22 04:33N 47°38' W 122°23'0 0.0
2016-May-22 03:33N 47°38' W 122°23'0 0.0
2016-May-22 02:33N 47°38' W 122°23'0 0.0
2016-May-22 01:33N 47°38' W 122°23'0 0.0
2016-May-22 00:33N 47°38' W 122°23'0 0.0
2016-May-21 23:33N 47°38' W 122°23'0 0.0
2016-May-21 22:33N 47°38' W 122°23'0 0.0
2016-May-21 21:33N 47°38' W 122°23'  
Track history (hours):
 
Tides and Currents Weather Stations Pressure Air Temp Water Temp Dewpoint Dewpoint Depression Visibility Wind Speed Wind Dir Waves Ship Positions

M V Stampede

Last reported at 2016-May-31 21:11 UTC. Time now 2016-Jun-01 01:38 UTC.
Position N 50°27' W 125°17'.

Length 35 m; draft 3.2 m.

Type: Pleasure craft. MMSI: 538070463.

Date/timePositionNaut miles runAvg speedWind from/ knotsBaromVisibWave heightAir tempDewpointWater temp
2016-May-31 21:11N 50°27' W 125°17'5 8.5
2016-May-31 20:32N 50°24' W 125°09'3 3.1
2016-May-31 19:34N 50°22' W 125°05'1 1.4
2016-May-31 18:33N 50°21' W 125°06'6 6.5
2016-May-31 17:33N 50°16' W 125°00'7 7.2
2016-May-31 16:34N 50°12' W 124°51'0 0.3
2016-May-31 15:33N 50°12' W 124°51'0 0.0
2016-May-31 14:33N 50°12' W 124°51'0 0.0
2016-May-31 13:33N 50°12' W 124°51'0 0.0
2016-May-31 12:34N 50°12' W 124°51'0 0.0
2016-May-31 11:33N 50°12' W 124°51'0 0.0
2016-May-31 10:33N 50°12' W 124°51'0 0.0
2016-May-31 09:34N 50°12' W 124°51'0 0.0
2016-May-31 08:33N 50°12' W 124°51'0 0.0
2016-May-31 07:33N 50°12' W 124°51'0 0.0
2016-May-31 06:33N 50°12' W 124°51'0 0.0
2016-May-31 04:33N 50°12' W 124°51'0 0.0
2016-May-31 03:34N 50°12' W 124°51'0 0.0
2016-May-31 02:33N 50°12' W 124°51'0 0.0
2016-May-31 01:33N 50°12' W 124°51'0 0.0
2016-May-31 00:33N 50°12' W 124°51'0 0.0
2016-May-30 23:33N 50°12' W 124°51'0 0.0
2016-May-30 22:33N 50°12' W 124°51'0 0.2
2016-May-30 21:34N 50°12' W 124°51'0 0.2
2016-May-30 20:33N 50°12' W 124°51'0 0.0
2016-May-30 19:33N 50°12' W 124°51'0 0.0
2016-May-30 18:33N 50°12' W 124°51'0 0.0
2016-May-30 17:33N 50°12' W 124°51'0 0.0
2016-May-30 16:34N 50°12' W 124°51'0 0.0
2016-May-30 15:33N 50°12' W 124°51'0 0.0
2016-May-30 14:33N 50°12' W 124°51'0 0.0
2016-May-30 13:33N 50°12' W 124°51'0 0.0
2016-May-30 12:33N 50°12' W 124°51'0 0.0
2016-May-30 11:33N 50°12' W 124°51'0 0.0
2016-May-30 10:34N 50°12' W 124°51'0 0.0
2016-May-30 09:33N 50°12' W 124°51'0 0.0
2016-May-30 08:33N 50°12' W 124°51'0 0.0
2016-May-30 07:33N 50°12' W 124°51'0 0.0
2016-May-30 06:33N 50°12' W 124°51'0 0.0
2016-May-30 05:33N 50°12' W 124°51'0 0.0
2016-May-30 04:33N 50°12' W 124°51'0 0.0
2016-May-30 03:34N 50°12' W 124°51'0 0.0
2016-May-30 02:34N 50°12' W 124°51'0 0.0
2016-May-30 01:34N 50°12' W 124°51'0 0.0
2016-May-30 00:34N 50°12' W 124°51'0 0.0
2016-May-29 23:33N 50°12' W 124°51'0 0.0
2016-May-29 22:33N 50°12' W 124°51'0 0.0
2016-May-29 21:33N 50°12' W 124°51'3 3.2
2016-May-29 20:33N 50°09' W 124°53'7 7.2
2016-May-29 19:33N 50°02' W 124°51'10 9.8
2016-May-29 18:32N 49°55' W 124°40'9 9.6
2016-May-29 17:33N 49°47' W 124°31'10 9.6
2016-May-29 16:33N 49°44' W 124°17'3 2.9
2016-May-29 15:32N 49°44' W 124°12'0 0.0
2016-May-29 14:32N 49°44' W 124°12'0 0.0
2016-May-29 13:32N 49°44' W 124°12'0 0.0
2016-May-29 12:33N 49°44' W 124°12'0 0.0
2016-May-29 11:33N 49°44' W 124°12'0 0.0
2016-May-29 10:30N 49°44' W 124°12'0 0.0
2016-May-29 09:33N 49°44' W 124°12'0 0.0
2016-May-29 08:33N 49°44' W 124°12'0 0.0
2016-May-29 07:34N 49°44' W 124°12'0 0.0
2016-May-29 06:32N 49°44' W 124°12'0 0.0
2016-May-29 05:32N 49°44' W 124°12'0 0.0
2016-May-29 04:25N 49°44' W 124°12'0 0.0
2016-May-29 03:33N 49°44' W 124°12'0 0.0
2016-May-29 02:33N 49°44' W 124°12'1 0.7
2016-May-29 01:33N 49°43' W 124°13'9 8.5
2016-May-29 00:33N 49°35' W 124°08'1010.2
2016-May-28 23:32N 49°27' W 123°58'1110.2
2016-May-28 22:30N 49°25' W 123°42'9 9.0
2016-May-28 21:33N 49°21' W 123°31'1010.4
2016-May-28 20:33N 49°19' W 123°15'5 5.4
2016-May-28 19:33N 49°18' W 123°08'0 0.0
2016-May-28 18:33N 49°18' W 123°08'0 0.0
2016-May-28 17:33N 49°18' W 123°08'0 0.0
2016-May-28 16:33N 49°18' W 123°08'0 0.0
2016-May-28 15:33N 49°18' W 123°08'0 0.0
2016-May-28 14:33N 49°18' W 123°08'0 0.0
2016-May-28 13:34N 49°18' W 123°08'0 0.0
2016-May-28 12:33N 49°18' W 123°08'0 0.0
2016-May-28 11:33N 49°18' W 123°08'0 0.0
2016-May-28 10:33N 49°18' W 123°08'0 0.0
2016-May-28 09:33N 49°18' W 123°08'0 0.0
2016-May-28 08:33N 49°18' W 123°08'0 0.0
2016-May-28 07:33N 49°18' W 123°08'0 0.0
2016-May-28 06:33N 49°18' W 123°08'0 0.0
2016-May-28 05:33N 49°18' W 123°08'0 0.0
2016-May-28 04:33N 49°18' W 123°08'0 0.0
2016-May-28 03:33N 49°18' W 123°08'0 0.0
2016-May-28 02:33N 49°18' W 123°08'1 0.8
2016-May-28 01:34N 49°18' W 123°06'9 8.8
2016-May-28 00:33N 49°14' W 123°19'1111.0
2016-May-27 23:33N 49°03' W 123°20'1010.4
2016-May-27 22:33N 48°53' W 123°16'6 6.2
2016-May-27 21:33N 48°49' W 123°09'4 3.7
2016-May-27 20:31N 48°49' W 123°03'6 6.1
2016-May-27 19:32N 48°44' W 123°08'5 4.6
2016-May-27 18:27N 48°45' W 123°15'0 0.0
2016-May-27 17:14N 48°45' W 123°15'0 0.0
2016-May-27 16:16N 48°45' W 123°15'0 0.0
2016-May-27 15:33N 48°45' W 123°15'0 0.0
2016-May-27 14:24N 48°45' W 123°15'0 0.0
2016-May-27 13:30N 48°45' W 123°15'0 0.0
2016-May-27 12:19N 48°45' W 123°15'0 0.0
2016-May-27 11:16N 48°45' W 123°15'0 0.0
2016-May-27 10:31N 48°45' W 123°15'0 0.0
2016-May-27 09:33N 48°45' W 123°15'0 0.0
2016-May-27 06:28N 48°45' W 123°15'0 0.0
2016-May-27 04:11N 48°45' W 123°15'0 0.0
2016-May-27 01:32N 48°45' W 123°15'2 2.0
2016-May-27 00:19N 48°43' W 123°14'7 8.9
2016-May-26 23:33N 48°36' W 123°13'8 8.1
2016-May-26 22:33N 48°29' W 123°08'9 8.6
2016-May-26 21:33N 48°23' W 123°18'4 3.4
2016-May-26 20:31N 48°26' W 123°22'0 0.0
2016-May-26 19:31N 48°26' W 123°22'0 0.0
2016-May-26 18:31N 48°26' W 123°22'0 0.0
2016-May-26 17:32N 48°26' W 123°22'0 0.0
2016-May-26 16:25N 48°26' W 123°22'0 0.0
2016-May-26 15:31N 48°26' W 123°22'0 0.0
2016-May-26 14:33N 48°26' W 123°22'0 0.0
2016-May-26 13:34N 48°26' W 123°22'0 0.0
2016-May-26 12:22N 48°26' W 123°22'0 0.0
2016-May-26 11:19N 48°26' W 123°22'0 0.0
2016-May-26 10:31N 48°26' W 123°22'0 0.0
2016-May-26 09:31N 48°26' W 123°22'0 0.0
2016-May-26 08:31N 48°26' W 123°22'0 0.0
2016-May-26 07:28N 48°26' W 123°22'0 0.0
2016-May-26 06:33N 48°26' W 123°22'0 0.0
2016-May-26 05:33N 48°26' W 123°22'0 0.0
2016-May-26 04:33N 48°26' W 123°22'0 0.0
2016-May-26 03:30N 48°26' W 123°22'0 0.0
2016-May-26 02:33N 48°26' W 123°22'0 0.0
2016-May-26 01:33N 48°26' W 123°22'0 0.0
2016-May-26 00:33N 48°26' W 123°22'0 0.0
2016-May-25 23:33N 48°26' W 123°22'0 0.0
2016-May-25 22:33N 48°26' W 123°22'0 0.3
2016-May-25 21:34N 48°25' W 123°23'0 0.0
2016-May-25 20:34N 48°25' W 123°23'7 6.9
2016-May-25 19:33N 48°19' W 123°18'1010.5
2016-May-25 18:34N 48°14' W 123°04'14 0.8
2016-May-25 01:29N 48°06' W 122°47'4 3.7
2016-May-25 00:23N 48°07' W 122°41'5 6.5
2016-May-24 23:32N 48°02' W 122°37'7 7.3
2016-May-24 22:33N 47°56' W 122°30'9 9.3
2016-May-24 21:33N 47°48' W 122°26'9 9.4
2016-May-24 20:33N 47°38' W 122°26'1 1.5
2016-May-24 19:33N 47°38' W 122°24'0 0.0
2016-May-24 18:33N 47°38' W 122°24'0 0.0
2016-May-24 17:33N 47°38' W 122°24'0 0.0
2016-May-24 16:33N 47°38' W 122°24'0 0.0
2016-May-24 15:32N 47°38' W 122°24'0 0.0
2016-May-24 14:32N 47°38' W 122°24'0 0.0
2016-May-24 13:28N 47°38' W 122°24'0 0.0
2016-May-24 12:31N 47°38' W 122°24'0 0.0
2016-May-24 11:31N 47°38' W 122°24'0 0.0
2016-May-24 10:32N 47°38' W 122°24'0 0.0
2016-May-24 09:30N 47°38' W 122°24'0 0.0
2016-May-24 08:33N 47°38' W 122°24'0 0.0
2016-May-24 07:33N 47°38' W 122°24'0 0.0
2016-May-24 06:31N 47°38' W 122°24'0 0.0
2016-May-24 05:34N 47°38' W 122°24'0 0.0
2016-May-24 04:30N 47°38' W 122°24'0 0.2
2016-May-24 03:32N 47°38' W 122°23'0 0.0
2016-May-24 02:32N 47°38' W 122°23'0 0.0
2016-May-24 01:31N 47°38' W 122°23'0 0.0
2016-May-24 00:32N 47°38' W 122°23'0 0.0
2016-May-23 23:33N 47°38' W 122°23'0 0.0
2016-May-23 22:33N 47°38' W 122°23'0 0.0
2016-May-23 21:33N 47°38' W 122°23'0 0.0
2016-May-23 20:32N 47°38' W 122°23'0 0.0
2016-May-23 19:33N 47°38' W 122°23'0 0.0
2016-May-23 18:31N 47°38' W 122°23'0 0.0
2016-May-23 17:33N 47°38' W 122°23'0 0.0
2016-May-23 16:32N 47°38' W 122°23'0 0.0
2016-May-23 15:31N 47°38' W 122°23'0 0.0
2016-May-23 14:31N 47°38' W 122°23'0 0.0
2016-May-23 13:31N 47°38' W 122°23'0 0.0
2016-May-23 12:32N 47°38' W 122°23'0 0.0
2016-May-23 11:32N 47°38' W 122°23'0 0.0
2016-May-23 10:32N 47°38' W 122°23'0 0.0
2016-May-23 09:32N 47°38' W 122°23'0 0.0
2016-May-23 08:32N 47°38' W 122°23'0 0.0
2016-May-23 07:32N 47°38' W 122°23'0 0.0
2016-May-23 06:32N 47°38' W 122°23'0 0.0
2016-May-23 05:33N 47°38' W 122°23'0 0.0
2016-May-23 04:33N 47°38' W 122°23'0 0.0
2016-May-23 03:33N 47°38' W 122°23'0 0.0
2016-May-23 02:33N 47°38' W 122°23'0 0.0
2016-May-23 01:33N 47°38' W 122°23'0 0.0
2016-May-23 00:31N 47°38' W 122°23'0 0.0
2016-May-22 23:33N 47°38' W 122°23'0 0.0
2016-May-22 22:33N 47°38' W 122°23'0 0.0
2016-May-22 21:33N 47°38' W 122°23'0 0.0
2016-May-22 20:33N 47°38' W 122°23'0 0.0
2016-May-22 19:33N 47°38' W 122°23'0 0.0
2016-May-22 18:33N 47°38' W 122°23'0 0.0
2016-May-22 17:33N 47°38' W 122°23'0 0.0
2016-May-22 16:33N 47°38' W 122°23'0 0.0
2016-May-22 15:33N 47°38' W 122°23'0 0.0
2016-May-22 14:33N 47°38' W 122°23'0 0.0
2016-May-22 13:33N 47°38' W 122°23'0 0.0
2016-May-22 12:33N 47°38' W 122°23'0 0.0
2016-May-22 11:33N 47°38' W 122°23'0 0.0
2016-May-22 10:33N 47°38' W 122°23'0 0.0
2016-May-22 09:33N 47°38' W 122°23'0 0.0
2016-May-22 08:30N 47°38' W 122°23'0 0.0
2016-May-22 07:33N 47°38' W 122°23'0 0.0
2016-May-22 06:33N 47°38' W 122°23'0 0.0
2016-May-22 05:33N 47°38' W 122°23'0 0.0
2016-May-22 04:33N 47°38' W 122°23'0 0.0
2016-May-22 03:33N 47°38' W 122°23'0 0.0
2016-May-22 02:33N 47°38' W 122°23'0 0.0
2016-May-22 01:33N 47°38' W 122°23'0 0.0
2016-May-22 00:33N 47°38' W 122°23'0 0.0
2016-May-21 23:33N 47°38' W 122°23'0 0.0
2016-May-21 22:33N 47°38' W 122°23'0 0.0
2016-May-21 21:33N 47°38' W 122°23'  

Dump ship's entire track history